Time;durP1;ratioP1;P1;durP2;ratioP2;P2;SDS_P1;SDS_P2;PMS_P1;PMS_P2;Temp;Humidity;BMP_temperature;BMP_pressure;BME280_temperature;BME280_humidity;BME280_pressure;Samples;Min_cycle;Max_cycle;Signal;HPM_P1;HPM_P2
2022/06/27 00:00:23;;;;;;;4.50;2.80;;;18.10;99.90;;;;;;5017463;28;20033;-69
2022/06/27 00:02:48;;;;;;;5.75;3.15;;;18.10;99.90;;;;;;5017094;28;20399;-69
2022/06/27 00:05:14;;;;;;;6.03;3.47;;;18.10;99.90;;;;;;5015731;28;20502;-69
2022/06/27 00:07:39;;;;;;;6.28;3.25;;;18.20;99.90;;;;;;5024202;28;20080;-69
2022/06/27 00:10:05;;;;;;;4.72;2.80;;;18.10;99.90;;;;;;5033724;28;20538;-68
2022/06/27 00:12:31;;;;;;;4.40;3.15;;;18.10;99.90;;;;;;5029560;28;20028;-68
2022/06/27 00:14:57;;;;;;;8.07;3.55;;;18.10;99.90;;;;;;5019813;28;20104;-69
2022/06/27 00:17:22;;;;;;;5.43;3.13;;;18.10;99.90;;;;;;5003031;28;20065;-68
2022/06/27 00:19:48;;;;;;;4.93;3.28;;;18.10;99.90;;;;;;5014408;28;20029;-68
2022/06/27 00:22:13;;;;;;;3.83;2.70;;;18.00;99.90;;;;;;5025801;28;20030;-67
2022/06/27 00:24:39;;;;;;;16.00;4.78;;;18.00;99.90;;;;;;5021580;28;20507;-68
2022/06/27 00:27:05;;;;;;;6.43;3.58;;;18.10;99.90;;;;;;5033539;28;20478;-68
2022/06/27 00:29:31;;;;;;;5.35;3.30;;;18.10;99.90;;;;;;5031666;28;20034;-67
2022/06/27 00:31:56;;;;;;;5.85;3.30;;;18.10;99.90;;;;;;5016421;28;20060;-68
2022/06/27 00:34:22;;;;;;;4.53;2.90;;;18.20;99.90;;;;;;5031525;28;20553;-67
2022/06/27 00:36:47;;;;;;;7.70;3.38;;;18.20;99.90;;;;;;5031001;28;20022;-68
2022/06/27 00:39:13;;;;;;;7.97;3.67;;;18.20;99.90;;;;;;5014319;28;20032;-68
2022/06/27 00:41:38;;;;;;;4.70;3.25;;;18.10;99.90;;;;;;5014877;28;20033;-68
2022/06/27 00:44:04;;;;;;;6.00;2.88;;;18.10;99.90;;;;;;5013260;28;20113;-68
2022/06/27 00:46:29;;;;;;;5.57;3.45;;;18.00;99.90;;;;;;5026805;28;20033;-69
2022/06/27 00:48:56;;;;;;;19.73;5.97;;;18.10;99.90;;;;;;5016444;28;20076;-68
2022/06/27 00:51:24;;;;;;;7.72;3.75;;;18.10;99.90;;;;;;5013543;28;20022;-68
2022/06/27 00:53:53;;;;;;;5.20;3.00;;;18.10;99.90;;;;;;5014254;28;20037;-69
2022/06/27 00:56:18;;;;;;;5.75;3.80;;;18.10;99.90;;;;;;5017648;28;20052;-68
2022/06/27 00:58:44;;;;;;;9.52;3.88;;;18.20;99.90;;;;;;5020946;28;20037;-68
2022/06/27 01:01:09;;;;;;;9.77;4.20;;;18.20;99.90;;;;;;5029676;28;20048;-68
2022/06/27 01:03:35;;;;;;;9.30;3.97;;;18.20;99.90;;;;;;5032772;28;20083;-69
2022/06/27 01:06:02;;;;;;;6.68;3.83;;;18.20;99.90;;;;;;5031564;28;20029;-68
2022/06/27 01:08:28;;;;;;;6.15;3.03;;;18.20;99.90;;;;;;5013737;28;20038;-68
2022/06/27 01:10:53;;;;;;;7.43;3.75;;;18.20;99.90;;;;;;5023375;28;20079;-68
2022/06/27 01:13:19;;;;;;;8.32;3.47;;;18.20;99.90;;;;;;5027716;28;20022;-68
2022/06/27 01:15:45;;;;;;;3.85;3.42;;;18.20;99.90;;;;;;5015893;28;20474;-69
2022/06/27 01:18:10;;;;;;;5.82;3.80;;;18.20;99.90;;;;;;5011124;28;20029;-68
2022/06/27 01:20:36;;;;;;;6.15;3.63;;;18.20;99.90;;;;;;5026962;28;20048;-68
2022/06/27 01:23:02;;;;;;;4.63;3.72;;;18.20;99.90;;;;;;5014741;28;20034;-69
2022/06/27 01:25:27;;;;;;;5.57;3.55;;;18.20;99.90;;;;;;5013567;28;20502;-69
2022/06/27 01:27:53;;;;;;;7.60;3.10;;;18.10;99.90;;;;;;5019067;28;20394;-69
2022/06/27 01:30:19;;;;;;;7.13;3.72;;;18.10;99.90;;;;;;5005711;28;20022;-68
2022/06/27 01:32:45;;;;;;;6.93;3.83;;;18.10;99.90;;;;;;5018166;28;20096;-69
2022/06/27 01:35:10;;;;;;;12.60;4.95;;;18.20;99.90;;;;;;5032950;28;20075;-69
2022/06/27 01:37:36;;;;;;;8.20;4.45;;;18.20;99.90;;;;;;5022218;28;20083;-69
2022/06/27 01:40:01;;;;;;;5.28;4.10;;;18.10;99.90;;;;;;5014255;28;20026;-69
2022/06/27 01:42:27;;;;;;;7.57;4.22;;;18.10;99.90;;;;;;5013503;28;20034;-69
2022/06/27 01:44:53;;;;;;;9.82;4.30;;;18.20;99.90;;;;;;5030914;28;20033;-69
2022/06/27 01:47:18;;;;;;;9.73;4.38;;;18.10;99.90;;;;;;5032348;28;20036;-69
2022/06/27 01:49:44;;;;;;;5.63;4.88;;;18.10;99.90;;;;;;5028425;28;20029;-69
2022/06/27 01:52:11;;;;;;;4.97;4.15;;;18.10;99.90;;;;;;5013077;28;20022;-69
2022/06/27 01:54:37;;;;;;;10.38;5.05;;;18.10;99.90;;;;;;4995644;28;20033;-69
2022/06/27 01:57:04;;;;;;;6.97;5.00;;;18.00;99.90;;;;;;5012719;28;20422;-69
2022/06/27 01:59:30;;;;;;;7.57;5.10;;;18.10;99.90;;;;;;5014949;28;20034;-68
2022/06/27 02:01:58;;;;;;;6.25;4.95;;;18.10;99.90;;;;;;5022481;28;20033;-68
2022/06/27 02:04:26;;;;;;;8.25;4.97;;;18.10;99.90;;;;;;5031760;28;20069;-69
2022/06/27 02:06:51;;;;;;;6.95;4.88;;;18.00;99.90;;;;;;5008354;28;20029;-69
2022/06/27 02:09:17;;;;;;;13.82;5.47;;;18.00;99.90;;;;;;5013788;28;20022;-68
2022/06/27 02:11:44;;;;;;;6.95;5.53;;;18.00;99.90;;;;;;5017831;28;20470;-69
2022/06/27 02:14:09;;;;;;;6.65;5.43;;;18.00;99.90;;;;;;5012883;28;20394;-68
2022/06/27 02:16:35;;;;;;;8.88;5.85;;;18.00;99.90;;;;;;5012579;28;20025;-68
2022/06/27 02:19:00;;;;;;;9.75;6.57;;;18.00;99.90;;;;;;5013692;28;20025;-69
2022/06/27 02:21:27;;;;;;;8.70;6.38;;;18.00;99.90;;;;;;4997200;28;20474;-68
2022/06/27 02:23:53;;;;;;;13.98;6.05;;;17.90;99.90;;;;;;5012780;28;20490;-68
2022/06/27 02:26:23;;;;;;;14.38;6.93;;;18.00;99.90;;;;;;5012558;28;20395;-70
2022/06/27 02:28:48;;;;;;;15.35;7.18;;;18.00;99.90;;;;;;5012764;28;20037;-65
2022/06/27 02:31:14;;;;;;;8.80;6.88;;;17.90;99.90;;;;;;4997170;28;20022;-64
2022/06/27 02:33:44;;;;;;;13.68;8.07;;;17.90;99.90;;;;;;5025233;28;20029;-64
2022/06/27 02:36:11;;;;;;;12.88;8.45;;;17.90;99.90;;;;;;5003089;28;20014;-65
2022/06/27 02:38:37;;;;;;;15.52;8.52;;;17.90;99.90;;;;;;5012579;28;20486;-64
2022/06/27 02:41:03;;;;;;;17.20;8.82;;;17.90;99.90;;;;;;5011603;28;20038;-64
2022/06/27 02:43:29;;;;;;;15.15;9.10;;;18.00;99.90;;;;;;4997088;28;20026;-65
2022/06/27 02:45:55;;;;;;;15.52;9.77;;;18.00;99.90;;;;;;5013657;28;20049;-65
2022/06/27 02:48:24;;;;;;;19.75;10.82;;;17.90;99.90;;;;;;5013389;28;20025;-65
2022/06/27 02:50:52;;;;;;;20.38;11.27;;;17.90;99.90;;;;;;5012535;28;20105;-65
2022/06/27 02:53:18;;;;;;;22.98;12.45;;;17.90;99.90;;;;;;5025954;28;20397;-65
2022/06/27 02:55:44;;;;;;;19.27;12.00;;;18.00;99.90;;;;;;5014774;28;20022;-65
2022/06/27 02:58:15;;;;;;;22.10;12.02;;;17.90;99.90;;;;;;4998696;28;20080;-65
2022/06/27 03:00:41;;;;;;;26.60;12.73;;;17.90;99.90;;;;;;5010375;28;20026;-66
2022/06/27 03:03:06;;;;;;;32.15;13.73;;;17.90;99.90;;;;;;5027099;28;20025;-65
2022/06/27 03:05:32;;;;;;;33.55;14.75;;;17.90;99.90;;;;;;5024007;28;20061;-65
2022/06/27 03:07:58;;;;;;;33.97;13.82;;;17.90;99.90;;;;;;5015797;28;20050;-65
2022/06/27 03:10:24;;;;;;;46.25;17.42;;;17.90;99.90;;;;;;5015868;28;20037;-66
2022/06/27 03:12:50;;;;;;;42.78;17.27;;;18.00;99.90;;;;;;5015868;28;20030;-65
2022/06/27 03:15:16;;;;;;;46.38;17.02;;;17.90;99.90;;;;;;5018064;28;20047;-65
2022/06/27 03:17:41;;;;;;;46.28;17.90;;;17.90;99.90;;;;;;5026177;28;20056;-65
2022/06/27 03:20:07;;;;;;;57.50;19.63;;;17.80;99.90;;;;;;5035595;28;20033;-65
2022/06/27 03:22:33;;;;;;;53.35;18.55;;;17.90;99.90;;;;;;5033489;28;20041;-65
2022/06/27 03:24:58;;;;;;;49.65;19.15;;;17.90;99.90;;;;;;5016811;28;20022;-65
2022/06/27 03:27:23;;;;;;;62.10;20.45;;;17.80;99.90;;;;;;5016208;28;20433;-65
2022/06/27 03:29:49;;;;;;;53.65;17.10;;;17.90;99.90;;;;;;5015527;28;20038;-65
2022/06/27 03:32:14;;;;;;;51.30;18.00;;;17.90;99.90;;;;;;5015391;28;20092;-65
2022/06/27 03:34:40;;;;;;;42.28;16.58;;;18.50;99.90;;;;;;5016460;28;20038;-65
2022/06/27 03:37:07;;;;;;;29.13;13.70;;;17.90;99.90;;;;;;5015481;28;20045;-65
2022/06/27 03:39:32;;;;;;;23.77;11.63;;;17.90;99.90;;;;;;5015224;28;20112;-65
2022/06/27 03:41:58;;;;;;;19.20;10.60;;;17.90;99.90;;;;;;5015148;28;20061;-65
2022/06/27 03:44:23;;;;;;;16.55;9.95;;;17.90;99.90;;;;;;5015274;28;20037;-65
2022/06/27 03:46:49;;;;;;;17.55;9.40;;;17.90;99.90;;;;;;5017357;28;20026;-65
2022/06/27 03:52:18;;;;;;;15.18;8.60;;;17.80;99.90;;;;;;4980533;28;20029;-66
2022/06/27 03:54:44;;;;;;;12.15;9.13;;;17.70;99.90;;;;;;4979387;28;20035;-65
2022/06/27 03:57:09;;;;;;;14.35;8.75;;;17.60;99.90;;;;;;4992413;28;20030;-65
2022/06/27 03:59:35;;;;;;;12.40;8.32;;;17.60;99.90;;;;;;5014954;28;20033;-65
2022/06/27 04:02:00;;;;;;;13.90;8.85;;;17.60;99.90;;;;;;5015434;28;20415;-65
2022/06/27 04:04:26;;;;;;;14.35;8.85;;;17.70;99.90;;;;;;5014472;28;20057;-65
2022/06/27 04:06:51;;;;;;;16.95;9.25;;;17.60;99.90;;;;;;5014843;28;20109;-65
2022/06/27 04:09:17;;;;;;;14.10;9.68;;;17.60;99.90;;;;;;5014700;28;20118;-66
2022/06/27 04:11:42;;;;;;;13.45;10.68;;;17.60;99.90;;;;;;5025436;28;20029;-65
2022/06/27 04:14:08;;;;;;;17.52;10.90;;;17.60;99.90;;;;;;5015336;28;20072;-66
2022/06/27 04:16:33;;;;;;;16.00;10.13;;;17.50;99.90;;;;;;5013245;28;20102;-65
2022/06/27 04:18:59;;;;;;;14.48;10.07;;;17.60;99.90;;;;;;5013918;28;20540;-66
2022/06/27 04:21:25;;;;;;;13.65;10.18;;;17.60;99.90;;;;;;5018133;28;20030;-66
2022/06/27 04:23:50;;;;;;;13.50;10.80;;;17.50;99.90;;;;;;5014314;28;20030;-65
2022/06/27 04:26:16;;;;;;;13.32;10.38;;;17.60;99.90;;;;;;5014113;28;20490;-66
2022/06/27 04:28:41;;;;;;;12.63;10.77;;;17.60;99.90;;;;;;5014438;28;20034;-65
2022/06/27 04:31:07;;;;;;;14.65;10.57;;;17.60;99.90;;;;;;5014771;28;20566;-65
2022/06/27 04:33:32;;;;;;;13.77;10.32;;;17.60;99.90;;;;;;5014313;28;20038;-65
2022/06/27 04:36:00;;;;;;;14.93;10.48;;;17.60;99.90;;;;;;5015076;28;20105;-65
2022/06/27 04:38:25;;;;;;;16.58;10.40;;;17.50;99.90;;;;;;5025242;28;20072;-65
2022/06/27 04:40:51;;;;;;;17.70;10.30;;;17.60;99.90;;;;;;5029600;28;20442;-64
2022/06/27 04:43:17;;;;;;;13.82;9.52;;;17.60;99.90;;;;;;5031532;28;20030;-65
2022/06/27 04:45:43;;;;;;;14.98;9.95;;;17.70;99.90;;;;;;5023497;28;20049;-67
2022/06/27 04:48:10;;;;;;;16.70;10.88;;;17.70;99.90;;;;;;5033780;28;20030;-66
2022/06/27 04:50:36;;;;;;;14.82;10.52;;;17.60;99.90;;;;;;5032541;28;20021;-66
2022/06/27 04:53:11;;;;;;;15.43;11.90;;;17.50;99.90;;;;;;5033338;28;20030;-67
2022/06/27 04:55:37;;;;;;;15.55;11.48;;;17.60;99.90;;;;;;5033634;28;20096;-65
2022/06/27 04:58:03;;;;;;;18.45;11.38;;;17.60;99.90;;;;;;5018440;28;20117;-66
2022/06/27 05:00:28;;;;;;;12.15;10.32;;;17.60;99.90;;;;;;5013740;28;20101;-65
2022/06/27 05:02:54;;;;;;;13.32;10.80;;;18.40;99.90;;;;;;5013944;28;20036;-65
2022/06/27 05:05:20;;;;;;;14.82;10.07;;;17.70;99.90;;;;;;5013540;28;20445;-66
2022/06/27 05:07:45;;;;;;;16.30;10.82;;;17.80;99.90;;;;;;5013325;28;20072;-66
2022/06/27 05:10:11;;;;;;;14.60;10.63;;;17.80;99.90;;;;;;5013438;28;20029;-66
2022/06/27 05:12:36;;;;;;;10.68;9.30;;;17.80;99.90;;;;;;5013249;28;20485;-66
2022/06/27 05:15:02;;;;;;;11.73;9.65;;;17.90;99.90;;;;;;5023159;28;20025;-65
2022/06/27 05:17:28;;;;;;;12.80;9.40;;;18.10;99.90;;;;;;5028621;28;20030;-65
2022/06/27 05:19:53;;;;;;;15.82;10.60;;;18.30;99.90;;;;;;5013491;28;20113;-65
2022/06/27 05:22:19;;;;;;;12.73;9.82;;;18.20;99.90;;;;;;5030564;28;20026;-65
2022/06/27 05:24:44;;;;;;;17.08;10.95;;;18.30;99.90;;;;;;5033135;28;20409;-65
2022/06/27 05:27:10;;;;;;;11.30;10.10;;;18.30;99.90;;;;;;5025662;28;20474;-65
2022/06/27 05:29:38;;;;;;;12.70;9.98;;;18.40;99.90;;;;;;5012566;28;20037;-65
2022/06/27 05:32:04;;;;;;;13.80;9.85;;;18.50;99.90;;;;;;5013368;28;20025;-65
2022/06/27 05:34:30;;;;;;;12.07;9.85;;;18.70;99.90;;;;;;5030840;28;20397;-65
2022/06/27 05:36:55;;;;;;;13.95;10.63;;;18.70;99.90;;;;;;5028363;28;20075;-66
2022/06/27 05:39:21;;;;;;;13.98;10.48;;;18.80;99.90;;;;;;5029975;28;20025;-65
2022/06/27 05:41:47;;;;;;;16.45;9.65;;;18.90;99.90;;;;;;5017270;28;20038;-65
2022/06/27 05:44:15;;;;;;;14.23;10.48;;;18.90;99.90;;;;;;5012896;28;20068;-65
2022/06/27 05:46:41;;;;;;;20.40;11.35;;;18.70;99.90;;;;;;4998278;28;20505;-65
2022/06/27 05:49:08;;;;;;;12.63;10.10;;;18.60;99.90;;;;;;5013170;28;20029;-66
2022/06/27 05:51:35;;;;;;;15.88;10.70;;;18.60;99.90;;;;;;5013069;28;20034;-66
2022/06/27 05:54:01;;;;;;;10.98;8.52;;;18.70;99.90;;;;;;5012744;28;20022;-66
2022/06/27 05:56:28;;;;;;;15.32;9.77;;;19.30;99.90;;;;;;5012756;28;20033;-67
2022/06/27 05:58:55;;;;;;;15.60;9.35;;;19.30;99.90;;;;;;5014034;28;20062;-72
2022/06/27 06:01:25;;;;;;;12.90;9.57;;;19.40;99.90;;;;;;4995214;28;20036;-81
2022/06/27 06:03:51;;;;;;;12.55;9.10;;;19.20;99.90;;;;;;5001601;28;20053;-72
2022/06/27 06:06:17;;;;;;;12.68;8.93;;;19.40;99.90;;;;;;4995168;28;20060;-72
2022/06/27 06:08:43;;;;;;;15.75;9.43;;;19.10;99.90;;;;;;5018565;28;20045;-72
2022/06/27 06:11:09;;;;;;;11.80;9.32;;;18.90;99.90;;;;;;5014887;28;20547;-72
2022/06/27 06:13:35;;;;;;;15.70;10.07;;;19.00;99.90;;;;;;5026403;28;20060;-72
2022/06/27 06:16:01;;;;;;;11.50;9.05;;;18.80;99.90;;;;;;5032459;28;20037;-71
2022/06/27 06:18:27;;;;;;;11.70;8.20;;;19.00;99.90;;;;;;5022509;28;20018;-72
2022/06/27 06:21:12;;;;;;;19.30;11.73;;;19.20;99.90;;;;;;5029243;28;20071;-71
2022/06/27 06:23:38;;;;;;;23.42;11.27;;;19.20;99.90;;;;;;5014757;28;20087;-72
2022/06/27 06:26:04;;;;;;;17.10;9.45;;;19.50;99.90;;;;;;4998606;28;20069;-72
2022/06/27 06:28:30;;;;;;;19.27;10.15;;;19.60;99.90;;;;;;5012768;28;20057;-71
2022/06/27 06:30:55;;;;;;;17.23;10.68;;;19.80;99.90;;;;;;5012465;28;20367;-71
2022/06/27 06:33:21;;;;;;;15.25;10.10;;;19.30;99.90;;;;;;5028014;28;20022;-71
2022/06/27 06:35:47;;;;;;;24.48;15.05;;;19.20;99.90;;;;;;5027934;28;20367;-71
2022/06/27 06:38:12;;;;;;;14.82;9.13;;;19.40;99.90;;;;;;5012448;28;20030;-71
2022/06/27 06:40:38;;;;;;;13.05;10.18;;;19.10;99.90;;;;;;5013380;28;20053;-72
2022/06/27 06:43:04;;;;;;;12.82;9.02;;;19.20;99.90;;;;;;5031910;28;20032;-71
2022/06/27 06:45:30;;;;;;;11.90;8.82;;;19.30;99.90;;;;;;4998512;28;20030;-71
2022/06/27 06:47:56;;;;;;;11.27;8.80;;;19.20;99.90;;;;;;5017244;28;20025;-71
2022/06/27 06:50:21;;;;;;;17.60;8.60;;;19.30;99.90;;;;;;5005176;28;20026;-71
2022/06/27 06:52:50;;;;;;;26.60;11.48;;;19.20;99.90;;;;;;4996595;28;20105;-71
2022/06/27 06:55:21;;;;;;;16.40;9.25;;;19.20;99.90;;;;;;5008633;28;20025;-72
2022/06/27 06:57:47;;;;;;;19.73;9.10;;;19.30;99.90;;;;;;5016098;28;20108;-74
2022/06/27 07:00:13;;;;;;;11.23;8.48;;;19.20;99.90;;;;;;5030979;28;20091;-73
2022/06/27 07:02:39;;;;;;;9.52;8.25;;;19.30;99.90;;;;;;5015713;28;20112;-73
2022/06/27 07:05:08;;;;;;;20.80;10.15;;;19.30;99.90;;;;;;5015953;28;20125;-73
2022/06/27 07:07:34;;;;;;;19.35;9.52;;;19.60;99.90;;;;;;5015629;28;20029;-73
2022/06/27 07:10:00;;;;;;;15.85;9.55;;;19.80;99.90;;;;;;4998409;28;20030;-73
2022/06/27 07:12:26;;;;;;;13.60;8.65;;;19.90;99.90;;;;;;5016038;28;20057;-73
2022/06/27 07:14:54;;;;;;;13.82;8.90;;;20.00;99.90;;;;;;5015715;28;20052;-73
2022/06/27 07:17:24;;;;;;;15.02;9.48;;;20.30;99.90;;;;;;5015617;28;20462;-74
2022/06/27 07:19:52;;;;;;;13.50;8.48;;;19.90;99.90;;;;;;5015690;28;20491;-73
2022/06/27 07:22:19;;;;;;;10.43;8.27;;;19.90;99.90;;;;;;4998400;28;20052;-73
2022/06/27 07:24:47;;;;;;;12.27;8.93;;;20.00;99.90;;;;;;5015531;28;20108;-72
2022/06/27 07:27:15;;;;;;;14.38;9.30;;;20.20;99.90;;;;;;5015523;28;20041;-73
2022/06/27 07:29:41;;;;;;;12.30;8.18;;;20.40;99.90;;;;;;5015209;28;20021;-72
2022/06/27 07:32:08;;;;;;;16.80;9.57;;;20.40;99.90;;;;;;4998038;28;20386;-72
2022/06/27 07:34:33;;;;;;;10.05;7.53;;;20.30;99.90;;;;;;5015330;28;20025;-72
2022/06/27 07:36:59;;;;;;;20.67;9.52;;;20.40;99.90;;;;;;5015459;28;20028;-72
2022/06/27 07:39:26;;;;;;;12.68;8.82;;;20.40;99.90;;;;;;5015288;28;20030;-73
2022/06/27 07:41:52;;;;;;;17.45;9.25;;;20.50;99.90;;;;;;5015314;28;20038;-72
2022/06/27 07:44:18;;;;;;;14.05;8.07;;;20.10;99.90;;;;;;5015265;28;20501;-72
2022/06/27 07:46:43;;;;;;;14.93;8.50;;;20.30;99.90;;;;;;4997402;28;20025;-72
2022/06/27 07:49:09;;;;;;;11.95;8.48;;;20.20;99.90;;;;;;5015119;28;20417;-73
2022/06/27 07:51:35;;;;;;;16.73;9.13;;;20.40;99.90;;;;;;5014626;28;20492;-72
2022/06/27 07:54:01;;;;;;;10.85;9.00;;;20.60;99.90;;;;;;5014647;28;20423;-73
2022/06/27 07:56:27;;;;;;;10.80;8.50;;;20.60;99.90;;;;;;5014492;28;20022;-71
2022/06/27 07:58:53;;;;;;;12.13;8.38;;;20.60;99.90;;;;;;5014124;28;20037;-73
2022/06/27 08:01:19;;;;;;;13.43;8.82;;;20.70;99.90;;;;;;5014680;28;20025;-71
2022/06/27 08:03:46;;;;;;;12.80;8.55;;;20.90;99.90;;;;;;5014540;28;20049;-71
2022/06/27 08:06:16;;;;;;;10.20;8.75;;;21.20;99.90;;;;;;5014855;28;20097;-72
2022/06/27 08:09:03;;;;;;;13.70;9.90;;;20.90;99.90;;;;;;5014436;28;20470;-72
2022/06/27 08:11:30;;;;;;;11.95;8.93;;;20.90;99.90;;;;;;5014640;28;20030;-73
2022/06/27 08:13:57;;;;;;;11.43;9.30;;;20.20;99.90;;;;;;5014675;28;20030;-73
2022/06/27 08:16:24;;;;;;;14.73;9.75;;;20.40;99.90;;;;;;4997278;28;20030;-73
2022/06/27 08:18:50;;;;;;;12.35;9.02;;;20.10;99.90;;;;;;4996962;28;20022;-73
2022/06/27 08:21:17;;;;;;;12.43;9.35;;;20.20;99.90;;;;;;5013182;28;20522;-73
2022/06/27 08:23:44;;;;;;;20.85;10.57;;;20.10;99.90;;;;;;4996920;28;20121;-72
2022/06/27 08:26:12;;;;;;;18.67;9.85;;;20.00;99.90;;;;;;5014232;28;20029;-72
2022/06/27 08:28:38;;;;;;;13.57;8.52;;;19.90;99.90;;;;;;5014079;28;20030;-71
2022/06/27 08:31:05;;;;;;;15.07;10.05;;;20.00;99.90;;;;;;4996821;28;20109;-71
2022/06/27 08:33:31;;;;;;;20.15;15.27;;;20.00;99.90;;;;;;5014044;28;20438;-72
2022/06/27 08:35:57;;;;;;;18.25;11.73;;;20.10;99.90;;;;;;5014147;28;20029;-72
2022/06/27 08:38:24;;;;;;;14.93;10.20;;;20.00;99.90;;;;;;5014222;28;20449;-72
2022/06/27 08:40:50;;;;;;;22.00;12.50;;;19.80;99.90;;;;;;5014069;28;20026;-66
2022/06/27 08:43:16;;;;;;;20.80;12.30;;;19.60;99.90;;;;;;5029157;28;20026;-66
2022/06/27 08:45:45;;;;;;;16.95;12.48;;;19.50;99.90;;;;;;5013933;28;20104;-66
2022/06/27 08:48:11;;;;;;;18.88;11.73;;;19.40;99.90;;;;;;5028900;28;20037;-66
2022/06/27 08:50:37;;;;;;;15.27;10.75;;;19.60;99.90;;;;;;5013701;28;20101;-66
2022/06/27 08:53:03;;;;;;;23.42;13.80;;;19.80;99.90;;;;;;5013997;28;20108;-66
2022/06/27 08:55:31;;;;;;;20.27;11.80;;;19.70;99.90;;;;;;5028980;28;20018;-66
2022/06/27 08:58:03;;;;;;;21.70;12.75;;;19.80;99.90;;;;;;5028713;28;20117;-66
2022/06/27 09:00:30;;;;;;;20.38;12.20;;;19.90;99.90;;;;;;5013586;28;20026;-66
2022/06/27 09:02:55;;;;;;;24.10;12.43;;;19.90;99.90;;;;;;5013300;28;20471;-66
2022/06/27 09:05:24;;;;;;;26.27;14.15;;;19.90;99.90;;;;;;5013252;28;20072;-66
2022/06/27 09:07:51;;;;;;;22.58;14.50;;;19.90;99.90;;;;;;5013475;28;20040;-66
2022/06/27 09:10:27;;;;;;;30.40;15.98;;;19.70;99.90;;;;;;5013487;28;20025;-66
2022/06/27 09:13:05;;;;;;;15.95;11.70;;;20.00;99.90;;;;;;5028174;28;20022;-66
2022/06/27 09:15:47;;;;;;;21.88;13.77;;;20.00;99.90;;;;;;5013435;28;20133;-66
2022/06/27 09:18:14;;;;;;;19.27;11.88;;;20.10;99.90;;;;;;5028478;28;20052;-66
2022/06/27 09:20:59;;;;;;;18.20;11.35;;;20.10;99.90;;;;;;5013136;28;20484;-66
2022/06/27 09:23:43;;;;;;;21.50;12.10;;;20.20;99.90;;;;;;5013388;28;20114;-66
2022/06/27 09:26:10;;;;;;;20.55;11.80;;;20.10;99.90;;;;;;5013504;28;20371;-66
2022/06/27 09:29:07;;;;;;;18.00;11.05;;;20.10;99.90;;;;;;5028163;28;20034;-66
2022/06/27 09:31:37;;;;;;;23.40;12.48;;;20.10;99.90;;;;;;5009961;28;20038;-66
2022/06/27 09:34:05;;;;;;;24.05;12.50;;;19.90;99.90;;;;;;5013178;28;20025;-66
2022/06/27 09:36:31;;;;;;;16.75;11.23;;;20.10;99.90;;;;;;5013231;28;20032;-66
2022/06/27 09:38:57;;;;;;;23.58;11.77;;;20.40;99.90;;;;;;5028225;28;20547;-66
2022/06/27 09:41:26;;;;;;;18.70;11.65;;;20.40;99.90;;;;;;5013163;28;20033;-66
2022/06/27 09:43:51;;;;;;;12.05;9.68;;;20.40;99.90;;;;;;5012828;28;20030;-66
2022/06/27 09:46:19;;;;;;;15.60;10.85;;;20.70;99.90;;;;;;4995562;28;20052;-66
2022/06/27 09:48:46;;;;;;;15.55;11.48;;;20.90;99.90;;;;;;5012816;28;20033;-66
2022/06/27 09:51:24;;;;;;;18.00;12.48;;;21.30;99.90;;;;;;5012516;28;20018;-66
2022/06/27 09:53:50;;;;;;;22.27;11.90;;;20.90;99.90;;;;;;4995404;28;20386;-66
2022/06/27 09:56:18;;;;;;;20.00;11.07;;;21.30;99.90;;;;;;4995662;28;20025;-70
2022/06/27 09:58:44;;;;;;;16.77;10.48;;;21.20;99.80;;;;;;5012869;28;20107;-69
2022/06/27 10:01:10;;;;;;;14.95;10.10;;;22.10;98.90;;;;;;4995465;28;20050;-71
2022/06/27 10:03:36;;;;;;;13.05;9.85;;;21.70;99.30;;;;;;4995229;28;20104;-72
2022/06/27 10:06:03;;;;;;;17.77;9.45;;;22.40;99.00;;;;;;4995489;28;20081;-70
2022/06/27 10:08:31;;;;;;;15.85;9.43;;;22.50;98.20;;;;;;5012862;28;20026;-70
2022/06/27 10:11:07;;;;;;;14.07;9.43;;;22.50;99.00;;;;;;5011348;28;20026;-70
2022/06/27 10:13:38;;;;;;;15.43;12.07;;;22.10;97.90;;;;;;4995391;28;20026;-70
2022/06/27 10:16:12;;;;;;;15.05;11.30;;;22.30;97.70;;;;;;5013851;28;20055;-70
2022/06/27 10:19:02;;;;;;;21.27;10.45;;;22.00;97.10;;;;;;5052107;28;20048;-71
2022/06/27 10:21:32;;;;;;;16.67;11.98;;;22.10;97.30;;;;;;5051581;28;20022;-70
2022/06/27 10:24:19;;;;;;;19.38;11.50;;;22.10;97.10;;;;;;5051552;28;20034;-70
2022/06/27 10:26:45;;;;;;;12.60;9.93;;;22.20;97.50;;;;;;5036510;28;20060;-70
2022/06/27 10:29:29;;;;;;;16.13;10.23;;;21.90;96.80;;;;;;5036371;28;20362;-70
2022/06/27 10:31:56;;;;;;;17.33;13.23;;;22.20;96.50;;;;;;5021987;28;20018;-70
2022/06/27 10:34:39;;;;;;;27.23;15.50;;;21.80;96.60;;;;;;5016283;28;20026;-70
2022/06/27 10:37:26;;;;;;;28.45;13.02;;;22.20;97.40;;;;;;4996864;28;20023;-70
2022/06/27 10:40:20;;;;;;;15.80;10.77;;;21.50;98.70;;;;;;5020076;28;20026;-70
2022/06/27 10:42:53;;;;;;;18.00;11.45;;;21.60;98.20;;;;;;5010122;28;20080;-70
2022/06/27 10:45:21;;;;;;;18.27;12.32;;;21.40;98.90;;;;;;5036141;28;20104;-70
2022/06/27 10:47:47;;;;;;;18.92;11.40;;;21.60;99.90;;;;;;5035879;28;20026;-70
2022/06/27 10:50:16;;;;;;;16.70;10.40;;;21.30;99.90;;;;;;5036117;28;20095;-70
2022/06/27 10:52:42;;;;;;;15.63;11.43;;;21.30;99.90;;;;;;5001422;28;20028;-70
2022/06/27 10:55:21;;;;;;;20.25;12.77;;;20.90;99.90;;;;;;5015090;28;20109;-70
2022/06/27 10:57:46;;;;;;;18.52;14.23;;;21.00;99.90;;;;;;5016101;28;20101;-70
2022/06/27 11:00:34;;;;;;;15.07;13.50;;;20.70;99.90;;;;;;5016031;28;20451;-70
2022/06/27 11:03:00;;;;;;;20.25;14.32;;;21.00;99.90;;;;;;5028885;28;20018;-70
2022/06/27 11:05:27;;;;;;;24.67;15.82;;;21.10;99.90;;;;;;4982173;28;20116;-70
2022/06/27 11:07:53;;;;;;;19.17;15.05;;;21.00;99.90;;;;;;5014393;28;20036;-69
2022/06/27 11:10:20;;;;;;;19.95;15.27;;;20.80;99.90;;;;;;5015783;28;20029;-70
2022/06/27 11:12:46;;;;;;;20.15;15.95;;;20.50;99.90;;;;;;5030631;28;20057;-69
2022/06/27 11:15:11;;;;;;;21.95;16.23;;;21.00;99.90;;;;;;5015497;28;20061;-69
2022/06/27 11:17:41;;;;;;;23.27;15.52;;;20.90;99.90;;;;;;5015323;28;20029;-67
2022/06/27 11:20:23;;;;;;;26.13;17.60;;;20.80;99.90;;;;;;5010881;28;20395;-66
2022/06/27 11:22:54;;;;;;;20.63;16.08;;;20.50;99.90;;;;;;5007590;28;20026;-67
2022/06/27 11:25:20;;;;;;;20.67;16.33;;;20.20;99.90;;;;;;5025014;28;20026;-66
2022/06/27 11:27:48;;;;;;;23.73;16.77;;;20.20;99.90;;;;;;5016626;28;20049;-66
2022/06/27 11:33:29;;;;;;;20.10;15.68;;;20.10;99.90;;;;;;5020320;28;20020;-66
2022/06/27 11:35:55;;;;;;;25.15;16.25;;;20.10;99.90;;;;;;5016911;28;20508;-67
2022/06/27 11:38:22;;;;;;;19.65;14.95;;;20.20;99.90;;;;;;5016967;28;20029;-67
2022/06/27 11:41:03;;;;;;;32.33;17.27;;;20.50;99.90;;;;;;5034698;28;20037;-66
2022/06/27 11:43:49;;;;;;;23.27;16.60;;;21.00;99.90;;;;;;5034490;28;20421;-66
2022/06/27 11:46:31;;;;;;;24.75;15.00;;;21.60;99.90;;;;;;5034134;28;20136;-66
2022/06/27 11:49:00;;;;;;;26.08;17.40;;;21.00;99.90;;;;;;5034428;28;20485;-67
2022/06/27 11:51:33;;;;;;;30.48;15.40;;;21.20;99.90;;;;;;5034663;28;20025;-67
2022/06/27 11:54:01;;;;;;;20.52;14.18;;;21.30;99.90;;;;;;5016851;28;20064;-67
2022/06/27 11:56:28;;;;;;;26.55;15.68;;;21.90;99.90;;;;;;5016790;28;20030;-67
2022/06/27 11:58:58;;;;;;;21.75;15.80;;;22.00;99.90;;;;;;5034363;28;20037;-67
2022/06/27 12:01:24;;;;;;;20.52;15.25;;;22.00;99.90;;;;;;5017114;28;20025;-67
2022/06/27 12:04:09;;;;;;;17.67;12.77;;;21.80;99.90;;;;;;5034372;28;20457;-67
2022/06/27 12:06:41;;;;;;;17.45;13.38;;;22.20;98.90;;;;;;5034410;28;20108;-67
2022/06/27 12:09:07;;;;;;;23.55;15.57;;;22.40;98.70;;;;;;5033634;28;20025;-67
2022/06/27 12:11:34;;;;;;;23.17;16.52;;;22.40;98.80;;;;;;5034343;28;20104;-67
2022/06/27 12:14:00;;;;;;;21.05;16.88;;;22.10;99.00;;;;;;5033986;28;20446;-67
2022/06/27 12:16:25;;;;;;;19.38;16.58;;;21.70;99.10;;;;;;5033882;28;20112;-67
2022/06/27 12:18:51;;;;;;;32.47;17.55;;;22.40;99.00;;;;;;5033339;28;20077;-67
2022/06/27 12:21:21;;;;;;;27.42;16.85;;;22.40;98.30;;;;;;5034162;28;20026;-67
2022/06/27 12:23:48;;;;;;;24.60;18.30;;;22.20;99.30;;;;;;5049259;28;20075;-67
2022/06/27 12:26:13;;;;;;;27.77;17.52;;;22.40;98.70;;;;;;5033906;28;20018;-67
2022/06/27 12:28:42;;;;;;;22.75;16.30;;;22.30;97.90;;;;;;5033757;28;20030;-67
2022/06/27 12:31:08;;;;;;;18.63;15.80;;;21.60;98.30;;;;;;5033923;28;20017;-67
2022/06/27 12:33:33;;;;;;;19.73;13.82;;;22.00;98.40;;;;;;5033896;28;20108;-67
2022/06/27 12:35:59;;;;;;;25.00;15.45;;;21.90;98.90;;;;;;5033603;28;20051;-67
2022/06/27 12:38:25;;;;;;;13.18;11.85;;;21.90;98.80;;;;;;5032586;28;20029;-67
2022/06/27 12:41:11;;;;;;;20.75;13.25;;;22.40;97.50;;;;;;5033458;28;20025;-67